utilisation pie
utilisation bar
humidity graph
temperature graph
Station id: aae83c for 3 days

start:   stop:  

day time in temp out temp in RH out RH H quota rule action
2021-04-11 00:03:18 12.1 4.3 46 55 72 g 0
2021-04-11 00:33:39 11.7 4.1 46 56 74 g 0
2021-04-11 01:03:56 11.4 3.7 47 58 74 g 0
2021-04-11 01:34:07 11.7 3.4 46 59 74 g 0
2021-04-11 02:04:19 12.3 3.1 45 61 75 g 0
2021-04-11 02:34:31 11.4 2.8 47 62 75 g 0
2021-04-11 03:04:44 10.8 2.4 49 64 75 g 0
2021-04-11 03:35:34 10.4 2.0 49 65 75 g 0
2021-04-11 04:05:45 10.2 1.4 50 67 75 t
1
2021-04-11 04:36:19 10.0 0.9 48 69 78 g 0
2021-04-11 05:06:30 11.4 0.4 45 71 76 g 0
2021-04-11 05:36:42 10.4 0.0 48 72 75 g 0
2021-04-11 06:06:53 9.8 -0.3 49 74 76 g 0
2021-04-11 06:37:05 9.4 -0.1 50 74 77 t
1
2021-04-11 07:07:16 8.7 0.5 49 75 88 g 0
2021-04-11 07:37:28 8.8 1.5 51 77 93 t
1
2021-04-11 08:07:39 8.3 3.1 49 75 108 h 0
2021-04-11 08:37:51 8.4 3.8 51 73 106 h 0
2021-04-11 09:08:07 8.9 5.0 50 71 110 h 0
2021-04-11 09:38:19 10.2 5.6 47 69 110 h 0
2021-04-11 10:08:31 9.4 6.9 49 65 113 h 0
2021-04-11 10:38:43 9.2 8.3 50 60 114 h 0
2021-04-11 11:08:55 9.0 9.3 50 53 107 h 0
2021-04-11 11:39:07 8.9 9.9 51 50 105 h 0
2021-04-11 12:09:20 8.9 10.5 51 48 104 h 0
2021-04-11 12:39:32 9.0 10.9 50 46 103 h 0
2021-04-11 13:09:44 9.1 11.2 49 45 104 h 0
2021-04-11 13:39:56 9.1 11.0 48 45 106 h 0
2021-04-11 14:10:08 9.2 10.7 48 46 106 h 0
2021-04-11 14:40:21 11.2 10.3 40 47 112 h 0
2021-04-11 15:10:33 11.9 9.8 40 47 102 h 0
2021-04-11 15:40:45 12.4 9.2 41 50 100 h 0
2021-04-11 16:10:58 12.5 8.8 42 51 97 h 0
2021-04-11 16:41:10 12.6 8.4 42 53 96 h 0
2021-04-11 17:11:22 12.5 7.9 43 57 99 h 0
2021-04-11 17:41:34 12.4 7.3 44 58 95 h 0
2021-04-11 18:11:46 13.6 6.5 42 59 90 g 0
2021-04-11 18:41:59 12.5 4.8 44 70 96 h 0
2021-04-11 19:12:11 12.2 3.7 45 74 94 h 0
2021-04-11 19:42:23 11.9 3.6 46 75 94 h 0
2021-04-11 20:12:35 11.7 3.5 46 75 94 h 0
2021-04-11 20:42:48 12.9 3.1 44 78 92 g 0
2021-04-11 21:13:00 12.4 2.8 45 80 94 h 0
2021-04-11 21:43:13 11.7 2.4 47 83 96 h 0
2021-04-11 22:13:25 11.3 2.1 48 85 97 h 0
2021-04-11 22:43:42 10.9 1.6 49 86 94 h 0
2021-04-11 23:13:59 10.6 1.4 49 88 96 h 0
2021-04-11 23:44:11 11.9 1.6 46 90 98 h 0
2021-04-12 00:14:23 11.3 1.9 47 90 102 h 0
2021-04-12 00:44:36 10.8 2.3 49 91 106 h 0
2021-04-12 01:14:53 10.2 2.7 50 91 110 h 0
2021-04-12 01:45:05 9.9 2.9 51 91 112 h 0
2021-04-12 02:15:17 9.7 3.1 52 91 114 h 0
2021-04-12 02:45:29 9.5 3.3 52 91 116 h 0
2021-04-12 03:15:42 11.3 3.5 47 91 115 h 0
2021-04-12 03:46:06 10.4 3.7 49 91 119 h 0
2021-04-12 04:16:18 10.0 3.7 50 91 119 h 0
2021-04-12 04:46:30 9.5 3.6 52 90 117 h 0
2021-04-12 05:16:44 9.2 3.3 53 90 115 h 0
2021-04-12 05:46:56 9.1 3.1 53 90 114 h 0
2021-04-12 06:17:08 8.9 3.2 54 91 116 h 0
2021-04-12 06:47:21 8.8 3.4 54 91 118 h 0
2021-04-12 07:17:33 8.7 3.7 54 91 121 h 0
2021-04-12 07:47:45 10.3 4.4 54 92 116 h 0
2021-04-12 08:18:15 10.5 5.3 52 91 126 h 0
2021-04-12 08:49:17 10.2 6.0 65 90 105 h 0
2021-04-12 09:19:30 10.6 7.1 67 89 107 h 0
2021-04-12 09:49:42 10.6 7.7 67 88 109 h 0
2021-04-12 10:19:54 10.1 7.7 62 87 120 h 0
2021-04-12 10:50:09 9.7 7.4 64 86 117 h 0
2021-04-12 11:20:21 9.4 7.4 64 85 116 h 0
2021-04-12 11:50:34 9.4 6.9 63 84 114 h 0
2021-04-12 12:20:46 11.6 6.5 55 85 112 h 0
2021-04-12 12:51:03 10.6 6.8 56 85 118 h 0
2021-04-12 13:21:15 10.1 7.6 58 82 121 h 0
2021-04-12 13:51:27 9.7 6.7 58 83 117 h 0
2021-04-12 14:21:39 9.4 6.6 59 83 117 h 0
2021-04-12 14:51:51 9.2 6.6 59 83 118 h 0
2021-04-12 15:22:04 9.1 6.6 59 82 117 h 0
2021-04-12 15:52:16 9.0 6.5 60 81 116 h 0
2021-04-12 16:22:28 8.9 6.7 60 79 115 h 0
2021-04-12 16:52:41 10.0 7.0 56 77 114 h 0
2021-04-12 17:22:53 10.6 7.3 54 76 114 h 0
2021-04-12 17:53:05 9.9 7.2 55 76 116 h 0
2021-04-12 18:23:17 10.9 7.0 55 76 108 h 0
2021-04-12 18:53:30 11.5 6.9 54 76 105 h 0
2021-04-12 19:23:42 11.8 6.6 53 77 104 h 0
2021-04-12 19:53:54 11.8 6.0 53 77 100 h 0
2021-04-12 20:24:06 11.9 5.5 53 78 97 h 0
2021-04-12 20:54:18 12.7 5.2 51 79 96 h 0
2021-04-12 21:24:30 12.0 4.8 53 80 95 h 0
2021-04-12 21:54:43 11.6 4.7 53 81 97 h 0
2021-04-12 22:24:55 11.4 4.7 54 81 97 h 0
2021-04-12 22:55:07 11.2 4.6 54 81 97 h 0
2021-04-12 23:25:24 11.0 4.3 54 81 96 h 0
2021-04-12 23:55:37 11.6 4.1 53 81 94 h 0


2021-04-13 00:26:26 CEST